Time;durP1;ratioP1;P1;durP2;ratioP2;P2;SDS_P1;SDS_P2;PMS_P1;PMS_P2;Temp;Humidity;BMP_temperature;BMP_pressure;BME280_temperature;BME280_humidity;BME280_pressure;Samples;Min_cycle;Max_cycle;Signal;HPM_P1;HPM_P2
2023/11/17 00:01:37;;;;;;;12.27;6.18;;;5.20;99.90;;;;;;5056138;28;20199;-46
2023/11/17 00:04:04;;;;;;;11.18;6.00;;;5.20;99.90;;;;;;5054102;28;20229;-49
2023/11/17 00:06:30;;;;;;;13.02;6.60;;;5.20;99.90;;;;;;5051598;28;20191;-48
2023/11/17 00:08:56;;;;;;;10.23;5.90;;;5.20;99.90;;;;;;5051907;28;20212;-50
2023/11/17 00:11:22;;;;;;;11.02;5.75;;;5.20;99.90;;;;;;5055124;28;20650;-48
2023/11/17 00:13:51;;;;;;;10.07;5.60;;;5.20;99.90;;;;;;5048071;28;20661;-50
2023/11/17 00:16:17;;;;;;;10.35;5.47;;;5.20;99.90;;;;;;5050124;28;20203;-49
2023/11/17 00:18:44;;;;;;;9.63;5.65;;;5.20;99.90;;;;;;5052723;28;20280;-48
2023/11/17 00:21:10;;;;;;;9.27;5.68;;;5.10;99.90;;;;;;5051954;28;20561;-45
2023/11/17 00:23:37;;;;;;;8.93;6.10;;;5.20;99.90;;;;;;5051741;28;20206;-48
2023/11/17 00:26:08;;;;;;;11.23;5.95;;;5.10;99.90;;;;;;5065532;28;20218;-46
2023/11/17 00:28:39;;;;;;;9.15;5.93;;;5.20;99.90;;;;;;5049363;28;20219;-47
2023/11/17 00:31:09;;;;;;;10.05;5.82;;;5.20;99.90;;;;;;5043287;28;20734;-49
2023/11/17 00:33:36;;;;;;;10.27;6.25;;;5.10;99.90;;;;;;5051050;28;20196;-48
2023/11/17 00:36:02;;;;;;;12.38;6.13;;;5.10;99.90;;;;;;5050400;28;20670;-46
2023/11/17 00:38:31;;;;;;;8.23;5.97;;;5.10;99.90;;;;;;5047437;28;20634;-50
2023/11/17 00:40:59;;;;;;;10.73;6.47;;;5.20;99.90;;;;;;5049606;28;20782;-51
2023/11/17 00:43:31;;;;;;;12.52;5.88;;;5.20;99.90;;;;;;5050370;28;20198;-43
2023/11/17 00:45:58;;;;;;;14.38;5.82;;;5.20;99.90;;;;;;5049220;28;20198;-47
2023/11/17 00:48:31;;;;;;;11.50;6.00;;;5.10;99.90;;;;;;5048759;28;20246;-50
2023/11/17 00:50:59;;;;;;;8.68;6.00;;;5.20;99.90;;;;;;5033973;28;20187;-51
2023/11/17 00:53:26;;;;;;;7.95;5.50;;;5.20;99.90;;;;;;5047970;28;20194;-49
2023/11/17 00:55:52;;;;;;;8.82;6.13;;;5.10;99.90;;;;;;5049404;28;20599;-50
2023/11/17 00:58:19;;;;;;;12.50;6.22;;;5.20;99.90;;;;;;5049354;28;20290;-50
2023/11/17 01:00:46;;;;;;;10.25;6.78;;;5.20;99.90;;;;;;5050722;28;20242;-48
2023/11/17 01:03:12;;;;;;;12.52;7.97;;;5.10;99.90;;;;;;5058298;28;20187;-43
2023/11/17 01:05:38;;;;;;;13.55;9.25;;;5.20;99.90;;;;;;5066554;28;20237;-42
2023/11/17 01:08:06;;;;;;;21.23;11.02;;;5.20;99.90;;;;;;5046829;28;20574;-45
2023/11/17 01:10:36;;;;;;;15.82;10.77;;;5.20;99.90;;;;;;5063963;28;20608;-46
2023/11/17 01:13:06;;;;;;;17.77;11.32;;;5.20;99.90;;;;;;5048065;28;20651;-46
2023/11/17 01:15:36;;;;;;;18.95;12.57;;;5.10;99.90;;;;;;5047887;28;20655;-48
2023/11/17 01:18:03;;;;;;;22.75;12.52;;;5.10;99.90;;;;;;5046082;28;20183;-51
2023/11/17 01:20:33;;;;;;;23.15;10.25;;;5.10;99.90;;;;;;5043616;28;20714;-46
2023/11/17 01:23:01;;;;;;;19.50;9.75;;;5.10;99.90;;;;;;5050790;28;20224;-46
2023/11/17 01:25:28;;;;;;;13.50;7.50;;;5.20;99.90;;;;;;5049361;28;20201;-47
2023/11/17 01:27:55;;;;;;;10.05;7.18;;;5.10;99.90;;;;;;5048637;28;20183;-49
2023/11/17 01:30:21;;;;;;;11.18;6.53;;;5.20;99.90;;;;;;5063290;28;20187;-44
2023/11/17 01:32:49;;;;;;;10.02;5.75;;;5.20;99.90;;;;;;5064753;28;20214;-43
2023/11/17 01:35:16;;;;;;;12.48;6.82;;;5.20;99.90;;;;;;5048252;28;20560;-48
2023/11/17 01:37:41;;;;;;;9.85;7.05;;;5.20;99.90;;;;;;5048794;28;20194;-45
2023/11/17 01:40:09;;;;;;;12.18;6.32;;;5.20;99.90;;;;;;5050434;28;20199;-49
2023/11/17 01:42:37;;;;;;;10.32;6.68;;;5.20;99.90;;;;;;5048976;28;20214;-46
2023/11/17 01:45:07;;;;;;;12.18;6.65;;;5.20;99.90;;;;;;5064422;28;20249;-46
2023/11/17 01:47:42;;;;;;;14.13;6.95;;;5.20;99.90;;;;;;5031617;28;20238;-46
2023/11/17 01:50:11;;;;;;;11.38;7.78;;;5.20;99.90;;;;;;5047208;28;20686;-49
2023/11/17 01:52:43;;;;;;;17.00;9.77;;;5.10;99.90;;;;;;5046402;28;20197;-45
2023/11/17 01:55:11;;;;;;;16.55;10.30;;;5.10;99.90;;;;;;5049368;28;20183;-53
2023/11/17 01:57:38;;;;;;;18.52;10.63;;;5.10;99.90;;;;;;5058620;28;20276;-46
2023/11/17 02:00:12;;;;;;;16.23;9.80;;;5.10;99.90;;;;;;5064145;28;20194;-46
2023/11/17 02:02:43;;;;;;;17.52;9.77;;;5.10;99.90;;;;;;5050233;28;20536;-45
2023/11/17 02:05:10;;;;;;;20.35;9.98;;;5.10;99.90;;;;;;5066371;28;20249;-51
2023/11/17 02:07:45;;;;;;;15.75;9.05;;;5.10;99.90;;;;;;5048823;28;21000;-47
2023/11/17 02:10:33;;;;;;;16.98;8.40;;;5.10;99.90;;;;;;5040650;28;20214;-48
2023/11/17 02:13:11;;;;;;;12.57;7.80;;;5.00;99.90;;;;;;5052622;28;21604;-48
2023/11/17 02:15:39;;;;;;;13.40;8.73;;;5.10;99.90;;;;;;5047626;28;20674;-47
2023/11/17 02:18:10;;;;;;;14.07;8.40;;;5.10;99.90;;;;;;5063020;28;20556;-49
2023/11/17 02:20:37;;;;;;;17.52;8.50;;;5.20;99.90;;;;;;5047527;28;20195;-46
2023/11/17 02:23:15;;;;;;;13.77;7.63;;;5.20;99.90;;;;;;5048660;28;20191;-45
2023/11/17 02:26:15;;;;;;;13.57;7.20;;;5.30;99.90;;;;;;5045944;28;20201;-49
2023/11/17 02:28:59;;;;;;;12.88;6.95;;;5.30;99.90;;;;;;5063885;28;20672;-43
2023/11/17 02:31:32;;;;;;;11.88;7.70;;;5.40;99.90;;;;;;5045468;28;20190;-44
2023/11/17 02:34:06;;;;;;;15.48;8.07;;;5.50;99.90;;;;;;5048598;28;20262;-48
2023/11/17 02:36:35;;;;;;;17.42;8.20;;;5.60;99.90;;;;;;5048979;28;20642;-48
2023/11/17 02:39:46;;;;;;;14.98;8.25;;;5.60;99.90;;;;;;5047669;28;20527;-44
2023/11/17 02:41:56;;;;;;;12.48;8.00;;;5.70;99.90;;;;;;5063753;28;20190;-49
2023/11/17 02:44:33;;;;;;;16.70;8.38;;;5.70;99.90;;;;;;5046783;28;20209;-48
2023/11/17 02:47:03;;;;;;;12.30;7.70;;;5.70;99.90;;;;;;5064782;28;20273;-47
2023/11/17 02:49:40;;;;;;;14.70;7.30;;;5.70;99.90;;;;;;5041976;28;20225;-43
2023/11/17 02:52:15;;;;;;;10.63;7.35;;;5.60;99.90;;;;;;5061836;28;20195;-43
2023/11/17 02:54:41;;;;;;;12.65;6.65;;;5.60;99.90;;;;;;5047232;28;20190;-46
2023/11/17 02:57:08;;;;;;;11.38;7.28;;;5.60;99.90;;;;;;5047922;28;20178;-48
2023/11/17 02:59:35;;;;;;;12.63;7.47;;;5.60;99.90;;;;;;5047745;28;20218;-48
2023/11/17 03:02:02;;;;;;;15.57;8.23;;;5.60;99.90;;;;;;5048058;28;20235;-50
2023/11/17 03:04:28;;;;;;;13.93;7.55;;;5.60;99.90;;;;;;5047595;28;20750;-44
2023/11/17 03:06:56;;;;;;;13.85;8.60;;;5.60;99.90;;;;;;5048009;28;20182;-46
2023/11/17 03:09:23;;;;;;;14.88;7.55;;;5.60;99.90;;;;;;5046851;28;20210;-44
2023/11/17 03:11:53;;;;;;;14.80;7.95;;;5.70;99.90;;;;;;5050701;28;20236;-47
2023/11/17 03:14:20;;;;;;;12.07;7.25;;;5.70;99.90;;;;;;5047923;28;20643;-47
2023/11/17 03:16:49;;;;;;;15.35;7.32;;;5.70;99.90;;;;;;5057437;28;20191;-44
2023/11/17 03:19:15;;;;;;;13.02;7.50;;;5.80;99.90;;;;;;5049579;28;20213;-43
2023/11/17 03:21:42;;;;;;;11.35;7.53;;;5.80;99.90;;;;;;5063888;28;20199;-47
2023/11/17 03:24:15;;;;;;;15.40;6.55;;;5.80;99.90;;;;;;5044943;28;20269;-44
2023/11/17 03:26:43;;;;;;;12.40;6.00;;;5.90;99.90;;;;;;5051564;28;20307;-44
2023/11/17 03:29:11;;;;;;;9.85;6.20;;;5.90;99.90;;;;;;5057549;28;20204;-45
2023/11/17 03:31:37;;;;;;;8.07;6.28;;;5.90;99.90;;;;;;5061981;28;20647;-47
2023/11/17 03:34:05;;;;;;;10.27;6.68;;;6.00;99.90;;;;;;5063005;28;20233;-47
2023/11/17 03:36:31;;;;;;;11.80;6.97;;;6.00;99.90;;;;;;5030948;28;20187;-45
2023/11/17 03:38:57;;;;;;;9.30;6.78;;;6.00;99.90;;;;;;5045768;28;20201;-48
2023/11/17 03:41:23;;;;;;;14.65;6.88;;;6.00;99.90;;;;;;5047532;28;20205;-49
2023/11/17 03:43:49;;;;;;;10.15;6.70;;;6.00;99.90;;;;;;5045830;28;20560;-49
2023/11/17 03:46:15;;;;;;;10.00;6.72;;;6.00;99.90;;;;;;5047791;28;20226;-49
2023/11/17 03:48:41;;;;;;;10.52;6.88;;;6.10;99.90;;;;;;5046981;28;20713;-47
2023/11/17 03:51:08;;;;;;;12.20;6.75;;;6.10;99.90;;;;;;5046241;28;20200;-46
2023/11/17 03:53:35;;;;;;;9.15;6.20;;;6.10;99.90;;;;;;5046303;28;20245;-44
2023/11/17 03:56:02;;;;;;;19.75;8.18;;;6.10;99.90;;;;;;5049695;28;20265;-46
2023/11/17 03:58:28;;;;;;;11.82;7.80;;;6.10;99.90;;;;;;5045934;28;20249;-50
2023/11/17 04:00:55;;;;;;;12.95;8.88;;;6.10;99.90;;;;;;5047683;28;20187;-48
2023/11/17 04:03:21;;;;;;;17.63;9.20;;;6.20;99.90;;;;;;5047993;28;20601;-46
2023/11/17 04:05:47;;;;;;;12.25;8.52;;;6.20;99.90;;;;;;5048502;28;20191;-50
2023/11/17 04:08:16;;;;;;;12.48;7.97;;;6.20;99.90;;;;;;5045749;28;20223;-48
2023/11/17 04:10:45;;;;;;;15.05;8.45;;;6.20;99.90;;;;;;5063868;28;20215;-51
2023/11/17 04:13:12;;;;;;;14.48;9.50;;;6.10;99.90;;;;;;5047082;28;20191;-46
2023/11/17 04:15:39;;;;;;;12.77;9.15;;;6.10;99.90;;;;;;5053586;28;20606;-47
2023/11/17 04:18:06;;;;;;;14.85;8.68;;;6.10;99.90;;;;;;5066448;28;20290;-45
2023/11/17 04:20:32;;;;;;;18.80;9.77;;;6.00;99.90;;;;;;5050465;28;20178;-50
2023/11/17 04:22:58;;;;;;;15.43;9.40;;;5.90;99.90;;;;;;5067483;28;20197;-51
2023/11/17 04:25:23;;;;;;;17.75;8.77;;;5.90;99.90;;;;;;5054288;28;20521;-44
2023/11/17 04:27:49;;;;;;;15.27;9.25;;;5.80;99.90;;;;;;5048952;28;20576;-52
2023/11/17 04:30:15;;;;;;;11.68;8.68;;;5.80;99.90;;;;;;5049487;28;20223;-49
2023/11/17 04:32:41;;;;;;;18.00;8.70;;;5.70;99.90;;;;;;5051358;28;20209;-47
2023/11/17 04:35:08;;;;;;;12.52;8.75;;;5.70;99.90;;;;;;5048525;28;20218;-43
2023/11/17 04:37:38;;;;;;;14.32;8.32;;;5.60;99.90;;;;;;5050235;28;20202;-47
2023/11/17 04:40:06;;;;;;;14.50;8.57;;;5.70;99.90;;;;;;5052978;28;20199;-44
2023/11/17 04:42:32;;;;;;;12.82;8.63;;;5.60;99.90;;;;;;5050808;28;20214;-44
2023/11/17 04:44:57;;;;;;;13.98;9.13;;;5.60;99.90;;;;;;5050132;28;21381;-50
2023/11/17 04:47:25;;;;;;;11.65;8.38;;;5.60;99.90;;;;;;5049437;28;20775;-50
2023/11/17 04:49:51;;;;;;;14.35;9.85;;;5.50;99.90;;;;;;5049840;28;20215;-48
2023/11/17 04:52:17;;;;;;;13.30;9.43;;;5.50;99.90;;;;;;5049221;28;20211;-46
2023/11/17 04:54:44;;;;;;;17.27;9.98;;;5.40;99.90;;;;;;5050306;28;20198;-49
2023/11/17 04:57:14;;;;;;;15.65;9.60;;;5.50;99.90;;;;;;5048817;28;20195;-50
2023/11/17 04:59:41;;;;;;;13.18;9.77;;;5.40;99.90;;;;;;5051106;28;20194;-44
2023/11/17 05:02:07;;;;;;;14.43;9.55;;;5.40;99.90;;;;;;5049268;28;20631;-46
2023/11/17 05:04:33;;;;;;;14.38;10.30;;;5.40;99.90;;;;;;5063380;28;20186;-47
2023/11/17 05:06:59;;;;;;;14.15;10.07;;;5.30;99.90;;;;;;5066083;28;20720;-48
2023/11/17 05:09:25;;;;;;;17.67;10.85;;;5.30;99.90;;;;;;5067502;28;20219;-49
2023/11/17 05:11:51;;;;;;;15.52;11.18;;;5.30;99.90;;;;;;5047490;28;20237;-48
2023/11/17 05:14:17;;;;;;;13.45;10.75;;;5.30;99.90;;;;;;5048214;28;20198;-48
2023/11/17 05:16:45;;;;;;;14.73;11.10;;;5.20;99.90;;;;;;5050377;28;20630;-51
2023/11/17 05:19:14;;;;;;;18.48;12.05;;;5.20;99.90;;;;;;5051751;28;20642;-49
2023/11/17 05:21:40;;;;;;;17.33;12.68;;;5.10;99.90;;;;;;5048430;28;20182;-49
2023/11/17 05:24:06;;;;;;;16.67;11.52;;;5.20;99.90;;;;;;5048418;28;20199;-48
2023/11/17 05:26:33;;;;;;;16.95;11.70;;;5.20;99.90;;;;;;5049705;28;20198;-50
2023/11/17 05:28:59;;;;;;;19.08;11.95;;;5.10;99.90;;;;;;5049856;28;20214;-48
2023/11/17 05:31:27;;;;;;;19.77;13.07;;;5.10;99.90;;;;;;5050578;28;20541;-42
2023/11/17 05:33:54;;;;;;;16.83;12.45;;;5.10;99.90;;;;;;5050775;28;20190;-47
2023/11/17 05:36:20;;;;;;;23.40;16.30;;;5.10;99.90;;;;;;5046858;28;20434;-47
2023/11/17 05:38:48;;;;;;;24.40;14.35;;;5.20;99.90;;;;;;5048566;28;20553;-46
2023/11/17 05:41:14;;;;;;;18.70;13.95;;;5.10;99.90;;;;;;5051529;28;20221;-47
2023/11/17 05:43:44;;;;;;;23.65;14.13;;;5.10;99.90;;;;;;5047188;28;20186;-48
2023/11/17 05:46:10;;;;;;;19.55;14.13;;;5.10;99.90;;;;;;5049710;28;20199;-44
2023/11/17 05:48:36;;;;;;;20.25;14.70;;;5.10;99.90;;;;;;5050501;28;20716;-45
2023/11/17 05:51:09;;;;;;;23.88;14.57;;;5.10;99.90;;;;;;5046967;28;20618;-45
2023/11/17 05:53:37;;;;;;;19.50;14.30;;;5.10;99.90;;;;;;5047730;28;20190;-47
2023/11/17 05:56:06;;;;;;;22.33;14.68;;;5.10;99.90;;;;;;5049553;28;20641;-45
2023/11/17 05:58:32;;;;;;;25.23;14.98;;;5.10;99.90;;;;;;5049330;28;20206;-48
2023/11/17 06:00:57;;;;;;;20.35;14.85;;;5.00;99.90;;;;;;5048434;28;20183;-47
2023/11/17 06:03:23;;;;;;;21.50;15.02;;;5.10;99.90;;;;;;5051115;28;20649;-48
2023/11/17 06:05:49;;;;;;;19.70;14.40;;;5.10;99.90;;;;;;5048800;28;20293;-51
2023/11/17 06:08:15;;;;;;;22.88;14.45;;;5.10;99.90;;;;;;5048327;28;20191;-50
2023/11/17 06:10:42;;;;;;;22.40;15.00;;;5.10;99.90;;;;;;5048443;28;20713;-48
2023/11/17 06:13:10;;;;;;;25.92;16.88;;;5.10;99.90;;;;;;5048761;28;20656;-44
2023/11/17 06:15:36;;;;;;;23.50;14.90;;;5.10;99.90;;;;;;5046429;28;20561;-48
2023/11/17 06:18:04;;;;;;;21.63;15.57;;;5.00;99.90;;;;;;5046160;28;20191;-51
2023/11/17 06:20:30;;;;;;;26.42;16.25;;;5.10;99.90;;;;;;5051496;28;20218;-44
2023/11/17 06:22:57;;;;;;;24.23;15.48;;;5.10;99.90;;;;;;5048899;28;20191;-49
2023/11/17 06:25:25;;;;;;;27.40;15.93;;;5.10;99.90;;;;;;5048126;28;20217;-49
2023/11/17 06:27:52;;;;;;;23.00;15.77;;;5.10;99.90;;;;;;5049393;28;20194;-46
2023/11/17 06:30:18;;;;;;;22.08;14.75;;;5.10;99.90;;;;;;5048546;28;20226;-44
2023/11/17 06:32:44;;;;;;;23.42;15.70;;;5.00;99.90;;;;;;5045266;28;20237;-47
2023/11/17 06:35:11;;;;;;;23.83;15.10;;;5.10;99.90;;;;;;5062739;28;20190;-47
2023/11/17 06:37:37;;;;;;;24.73;16.77;;;5.10;99.90;;;;;;5048846;28;20664;-50
2023/11/17 06:40:07;;;;;;;23.42;15.57;;;5.10;99.90;;;;;;5048755;28;20225;-43
2023/11/17 06:42:33;;;;;;;24.55;16.38;;;5.10;99.90;;;;;;5047044;28;20286;-48
2023/11/17 06:44:59;;;;;;;22.83;16.63;;;5.10;99.90;;;;;;5046336;28;20195;-45
2023/11/17 06:47:25;;;;;;;25.52;16.65;;;5.10;99.90;;;;;;5049777;28;20235;-47
2023/11/17 06:49:51;;;;;;;23.65;17.17;;;5.10;99.90;;;;;;5048067;28;20205;-48
2023/11/17 06:52:17;;;;;;;30.73;18.20;;;5.10;99.90;;;;;;5046379;28;20191;-46
2023/11/17 06:54:43;;;;;;;26.75;17.10;;;5.10;99.90;;;;;;5048952;28;20679;-46
2023/11/17 06:57:10;;;;;;;31.35;17.83;;;5.10;99.90;;;;;;5063597;28;20671;-46
2023/11/17 06:59:36;;;;;;;28.20;17.30;;;5.10;99.90;;;;;;5050363;28;20213;-49
2023/11/17 07:02:03;;;;;;;28.98;18.25;;;5.10;99.90;;;;;;5033512;28;20496;-47
2023/11/17 07:04:30;;;;;;;29.95;18.73;;;5.10;99.90;;;;;;5049369;28;20187;-46
2023/11/17 07:06:59;;;;;;;29.38;17.88;;;5.00;99.90;;;;;;5046876;28;21237;-44
2023/11/17 07:09:30;;;;;;;28.17;18.48;;;5.10;99.90;;;;;;5047103;28;20722;-49
2023/11/17 07:12:01;;;;;;;32.55;19.85;;;5.00;99.90;;;;;;5050474;28;20186;-45
2023/11/17 07:14:30;;;;;;;40.72;24.13;;;5.10;99.90;;;;;;5046962;28;20286;-43
2023/11/17 07:16:56;;;;;;;32.30;19.33;;;5.00;99.90;;;;;;5057106;28;20187;-43
2023/11/17 07:19:22;;;;;;;34.17;19.88;;;5.00;99.90;;;;;;5052325;28;20248;-45
2023/11/17 07:21:50;;;;;;;30.58;19.83;;;5.10;99.90;;;;;;5048136;28;20194;-50
2023/11/17 07:24:19;;;;;;;29.10;18.83;;;5.10;99.90;;;;;;5050555;28;20678;-46
2023/11/17 07:26:45;;;;;;;34.00;19.55;;;5.10;99.90;;;;;;5049089;28;20213;-43
2023/11/17 07:29:13;;;;;;;31.10;17.80;;;5.20;99.90;;;;;;5049010;28;20256;-45
2023/11/17 07:31:43;;;;;;;29.85;18.17;;;5.10;99.90;;;;;;5048636;28;20191;-48
2023/11/17 07:34:15;;;;;;;30.05;18.38;;;5.20;99.90;;;;;;5051658;28;20182;-43
2023/11/17 07:36:42;;;;;;;30.35;18.73;;;5.20;99.90;;;;;;5051648;28;20178;-47
2023/11/17 07:39:14;;;;;;;33.00;19.42;;;5.20;99.90;;;;;;5046279;28;20194;-45
2023/11/17 07:41:41;;;;;;;31.52;18.70;;;5.20;99.90;;;;;;5048431;28;20524;-45
2023/11/17 07:44:11;;;;;;;29.25;18.23;;;5.30;99.90;;;;;;5046051;28;20589;-47
2023/11/17 07:46:40;;;;;;;32.60;18.63;;;5.30;99.90;;;;;;5048624;28;20198;-47
2023/11/17 07:49:06;;;;;;;29.05;17.83;;;5.30;99.90;;;;;;5067414;28;20756;-48
2023/11/17 07:51:35;;;;;;;32.15;17.92;;;5.40;99.90;;;;;;5050347;28;20187;-42
2023/11/17 07:54:01;;;;;;;26.27;16.42;;;5.40;99.90;;;;;;5049747;28;20191;-52
2023/11/17 07:56:30;;;;;;;27.75;17.73;;;5.40;99.90;;;;;;5053006;28;20191;-52
2023/11/17 07:58:59;;;;;;;24.50;16.73;;;5.40;99.90;;;;;;5051564;28;21022;-47
2023/11/17 08:01:25;;;;;;;34.97;17.13;;;5.40;99.90;;;;;;5053100;28;20190;-47
2023/11/17 08:03:51;;;;;;;30.45;17.00;;;5.50;99.90;;;;;;5050248;28;20571;-50
2023/11/17 08:06:18;;;;;;;27.75;16.65;;;5.50;99.90;;;;;;5053731;28;20210;-46
2023/11/17 08:08:44;;;;;;;29.17;17.20;;;5.60;99.90;;;;;;5053646;28;20237;-46
2023/11/17 08:11:11;;;;;;;29.98;17.25;;;5.60;99.90;;;;;;5050699;28;20185;-45
2023/11/17 08:13:40;;;;;;;29.05;16.55;;;5.60;99.90;;;;;;5049167;28;20528;-51
2023/11/17 08:16:06;;;;;;;26.23;16.58;;;5.70;99.90;;;;;;5052530;28;20194;-45
2023/11/17 08:18:37;;;;;;;30.88;17.25;;;5.70;99.90;;;;;;5054129;28;20192;-44
2023/11/17 08:21:06;;;;;;;26.73;16.65;;;5.70;99.90;;;;;;5050940;28;20191;-46
2023/11/17 08:23:32;;;;;;;27.30;16.27;;;5.80;99.90;;;;;;5051949;28;21121;-44
2023/11/17 08:25:59;;;;;;;28.30;15.90;;;5.80;99.90;;;;;;5050958;28;20573;-42
2023/11/17 08:28:26;;;;;;;26.77;17.42;;;5.90;99.90;;;;;;5048995;28;20219;-46
2023/11/17 08:30:52;;;;;;;27.13;16.25;;;5.90;99.90;;;;;;5052627;28;20215;-46
2023/11/17 08:33:18;;;;;;;23.77;14.75;;;5.90;99.90;;;;;;5056006;28;20206;-48
2023/11/17 08:35:45;;;;;;;25.15;15.73;;;5.90;99.90;;;;;;5054148;28;20183;-45
2023/11/17 08:38:11;;;;;;;21.38;15.27;;;6.00;99.90;;;;;;5047919;28;20187;-46
2023/11/17 08:40:38;;;;;;;23.33;16.13;;;6.00;99.90;;;;;;5053556;28;20655;-51
2023/11/17 08:43:05;;;;;;;36.40;16.77;;;6.00;99.90;;;;;;5068328;28;20202;-50
2023/11/17 08:45:30;;;;;;;24.15;15.80;;;6.00;99.90;;;;;;5049698;28;20647;-49
2023/11/17 08:48:01;;;;;;;25.90;14.77;;;6.10;99.90;;;;;;5047708;28;20229;-43
2023/11/17 08:50:27;;;;;;;29.42;16.73;;;6.10;99.90;;;;;;5051360;28;20218;-44
2023/11/17 08:52:52;;;;;;;27.75;15.65;;;6.10;99.90;;;;;;5050781;28;20604;-47
2023/11/17 08:55:18;;;;;;;22.95;15.27;;;6.20;99.90;;;;;;5051928;28;20191;-47
2023/11/17 08:57:45;;;;;;;21.70;15.63;;;6.20;99.90;;;;;;5066396;28;20187;-44
2023/11/17 09:00:14;;;;;;;26.73;15.43;;;6.30;99.90;;;;;;5047319;28;20305;-50
2023/11/17 09:02:50;;;;;;;24.88;15.55;;;6.30;99.90;;;;;;5052736;28;20199;-51
2023/11/17 09:05:17;;;;;;;27.42;15.65;;;6.30;99.90;;;;;;5051270;28;20197;-44
2023/11/17 09:07:45;;;;;;;24.92;14.80;;;6.40;99.90;;;;;;5050968;28;20573;-46
2023/11/17 09:10:14;;;;;;;21.52;14.32;;;6.40;99.90;;;;;;5050543;28;20863;-45
2023/11/17 09:12:43;;;;;;;26.15;14.70;;;6.40;99.90;;;;;;5047360;28;20191;-49
2023/11/17 09:15:10;;;;;;;21.45;14.43;;;6.50;99.90;;;;;;5049332;28;20186;-51
2023/11/17 09:17:43;;;;;;;22.05;14.32;;;6.50;99.90;;;;;;5065671;28;20663;-48
2023/11/17 09:20:13;;;;;;;24.02;14.10;;;6.60;99.90;;;;;;5048636;28;20274;-46
2023/11/17 09:22:42;;;;;;;22.85;13.80;;;6.60;99.90;;;;;;5049158;28;20191;-44
2023/11/17 09:25:13;;;;;;;19.38;14.05;;;6.70;99.90;;;;;;5049275;28;20671;-44
2023/11/17 09:27:47;;;;;;;22.20;14.10;;;6.70;99.90;;;;;;5044638;28;20244;-47
2023/11/17 09:30:15;;;;;;;30.15;14.30;;;6.90;99.90;;;;;;5046509;28;20237;-46
2023/11/17 09:32:46;;;;;;;26.50;14.43;;;6.90;99.90;;;;;;5047961;28;20187;-46
2023/11/17 09:35:15;;;;;;;23.63;13.38;;;6.90;99.90;;;;;;5047733;28;20182;-47
2023/11/17 09:38:04;;;;;;;19.70;13.00;;;7.10;99.90;;;;;;5049117;28;20576;-49
2023/11/17 09:40:33;;;;;;;17.75;12.70;;;7.30;99.90;;;;;;5047143;28;20561;-46
2023/11/17 09:43:09;;;;;;;24.50;13.13;;;7.40;99.90;;;;;;5048129;28;20210;-50
2023/11/17 09:45:37;;;;;;;17.83;11.68;;;7.50;99.90;;;;;;5044096;28;20187;-48
2023/11/17 09:48:06;;;;;;;19.60;13.48;;;7.60;99.90;;;;;;5048468;28;20249;-48
2023/11/17 09:50:33;;;;;;;15.80;11.57;;;7.70;99.90;;;;;;5046244;28;20550;-45
2023/11/17 09:53:00;;;;;;;17.38;10.65;;;7.80;99.90;;;;;;5049106;28;20320;-48
2023/11/17 09:55:33;;;;;;;17.83;11.07;;;7.90;99.90;;;;;;5045210;28;20201;-50
2023/11/17 09:58:03;;;;;;;20.33;10.82;;;7.90;99.90;;;;;;5061950;28;20191;-44
2023/11/17 10:00:30;;;;;;;17.48;11.05;;;7.90;99.90;;;;;;5050646;28;20542;-46
2023/11/17 10:03:01;;;;;;;18.73;11.40;;;8.00;99.90;;;;;;5049774;28;20193;-48
2023/11/17 10:05:34;;;;;;;18.73;11.55;;;8.00;99.90;;;;;;5044977;28;20726;-45
2023/11/17 10:08:05;;;;;;;30.75;21.48;;;8.00;99.90;;;;;;5044292;28;20191;-47
2023/11/17 10:10:36;;;;;;;19.73;11.30;;;8.10;99.90;;;;;;5051470;28;20214;-44
2023/11/17 10:13:05;;;;;;;22.17;10.70;;;8.10;99.90;;;;;;5043726;28;20207;-46
2023/11/17 10:15:33;;;;;;;19.92;10.43;;;8.20;99.90;;;;;;5063920;28;20194;-45
2023/11/17 10:18:05;;;;;;;16.63;10.18;;;8.20;99.90;;;;;;5043861;28;20199;-45
2023/11/17 10:20:41;;;;;;;13.60;10.20;;;8.20;99.90;;;;;;5046385;28;20293;-50
2023/11/17 10:23:08;;;;;;;14.63;10.23;;;8.20;99.90;;;;;;5046713;28;20182;-48
2023/11/17 10:25:34;;;;;;;18.40;10.25;;;8.20;99.90;;;;;;5049521;28;20206;-48
2023/11/17 10:28:05;;;;;;;13.70;9.75;;;8.20;99.90;;;;;;5046109;28;20183;-48
2023/11/17 10:30:41;;;;;;;16.15;10.18;;;8.20;99.90;;;;;;5044465;28;20229;-47
2023/11/17 10:33:31;;;;;;;15.15;10.35;;;8.20;99.90;;;;;;5045973;28;20269;-51
2023/11/17 10:36:12;;;;;;;12.82;8.98;;;8.20;99.90;;;;;;5048551;28;20248;-51
2023/11/17 10:38:45;;;;;;;13.23;7.78;;;8.30;99.90;;;;;;5045242;28;20221;-49
2023/11/17 10:41:14;;;;;;;13.30;8.02;;;8.30;99.90;;;;;;5044892;28;20179;-45
2023/11/17 10:43:53;;;;;;;10.80;8.02;;;8.40;99.90;;;;;;5046967;28;20218;-52
2023/11/17 10:46:31;;;;;;;13.77;7.07;;;8.50;99.90;;;;;;5051232;28;20187;-45
2023/11/17 10:48:59;;;;;;;11.32;7.20;;;8.60;99.90;;;;;;5048210;28;20257;-49
2023/11/17 10:51:27;;;;;;;8.77;6.53;;;8.80;99.90;;;;;;5049675;28;21135;-53
2023/11/17 10:54:11;;;;;;;8.32;6.57;;;8.90;99.90;;;;;;5045670;28;20214;-48
2023/11/17 10:56:39;;;;;;;14.05;6.65;;;9.10;99.90;;;;;;5043441;28;20220;-52
2023/11/17 10:59:08;;;;;;;12.27;7.20;;;9.30;99.90;;;;;;5053761;28;20536;-47
2023/11/17 11:01:39;;;;;;;11.02;6.63;;;9.40;99.90;;;;;;5045391;28;20320;-42
2023/11/17 11:04:09;;;;;;;10.23;6.28;;;9.50;99.90;;;;;;5046419;28;20190;-48
2023/11/17 11:06:41;;;;;;;12.07;6.50;;;9.60;99.90;;;;;;5048392;28;20201;-46
2023/11/17 11:09:08;;;;;;;8.05;5.75;;;9.70;99.90;;;;;;5045248;28;20214;-47
2023/11/17 11:11:34;;;;;;;7.88;6.25;;;9.70;99.90;;;;;;5047319;28;20217;-46
2023/11/17 11:14:01;;;;;;;9.10;6.38;;;9.80;99.90;;;;;;5047137;28;20550;-45
2023/11/17 11:16:31;;;;;;;7.95;4.88;;;9.90;99.90;;;;;;5049976;28;20630;-47
2023/11/17 11:19:00;;;;;;;8.60;5.32;;;9.90;99.90;;;;;;5051242;28;20693;-53
2023/11/17 11:21:28;;;;;;;8.75;5.10;;;10.00;99.90;;;;;;5046201;28;20203;-47
2023/11/17 11:24:00;;;;;;;7.22;4.53;;;10.00;99.90;;;;;;5046433;28;20646;-49
2023/11/17 11:26:27;;;;;;;5.63;4.57;;;10.00;99.90;;;;;;5048567;28;20218;-50
2023/11/17 11:28:54;;;;;;;9.10;5.95;;;10.00;99.90;;;;;;5046250;28;21228;-53
2023/11/17 11:31:21;;;;;;;9.32;6.25;;;10.00;99.90;;;;;;5047875;28;20210;-45
2023/11/17 11:33:47;;;;;;;12.13;6.95;;;10.00;99.90;;;;;;5046802;28;20907;-51
2023/11/17 11:36:14;;;;;;;9.40;6.72;;;9.90;99.90;;;;;;5041245;28;20269;-50
2023/11/17 11:38:42;;;;;;;10.73;7.07;;;9.90;99.90;;;;;;5047753;28;20285;-48
2023/11/17 11:41:11;;;;;;;11.73;7.35;;;9.80;99.90;;;;;;5048639;28;20195;-47
2023/11/17 11:43:47;;;;;;;9.57;6.80;;;9.80;99.90;;;;;;5046644;28;20210;-44
2023/11/17 11:46:17;;;;;;;9.18;6.88;;;9.80;99.90;;;;;;5046807;28;20195;-44
2023/11/17 11:48:47;;;;;;;10.80;7.07;;;9.70;99.90;;;;;;5046766;28;20219;-46
2023/11/17 11:51:14;;;;;;;15.70;7.53;;;9.60;99.90;;;;;;5050200;28;20285;-44
2023/11/17 11:53:57;;;;;;;9.65;7.32;;;9.70;99.90;;;;;;5048858;28;20204;-44
2023/11/17 11:56:30;;;;;;;13.07;8.02;;;9.60;99.90;;;;;;5047815;28;20695;-44
2023/11/17 11:58:57;;;;;;;10.80;7.43;;;9.60;99.90;;;;;;5044161;28;20240;-46
2023/11/17 12:01:23;;;;;;;9.68;7.32;;;9.60;99.90;;;;;;5050614;28;20213;-44
2023/11/17 12:03:58;;;;;;;10.45;7.70;;;9.60;99.90;;;;;;5046452;28;20232;-50
2023/11/17 12:06:26;;;;;;;14.75;8.07;;;9.60;99.90;;;;;;5043916;28;20551;-43
2023/11/17 12:08:58;;;;;;;14.10;8.05;;;9.60;99.90;;;;;;5050031;28;20214;-48
2023/11/17 12:11:33;;;;;;;11.32;7.15;;;9.60;99.90;;;;;;5046657;28;20186;-49
2023/11/17 12:13:59;;;;;;;9.88;6.35;;;9.60;99.90;;;;;;5047129;28;20187;-43
2023/11/17 12:16:28;;;;;;;8.48;5.93;;;9.70;99.90;;;;;;5043761;28;20207;-43
2023/11/17 12:18:56;;;;;;;9.88;6.32;;;9.60;99.90;;;;;;5046766;28;20183;-42
2023/11/17 12:21:27;;;;;;;8.30;5.85;;;9.70;99.90;;;;;;5046181;28;20561;-42
2023/11/17 12:24:05;;;;;;;8.63;4.63;;;9.70;99.90;;;;;;5044748;28;21191;-48
2023/11/17 12:26:31;;;;;;;6.93;4.75;;;9.70;99.90;;;;;;5047228;28;20191;-46
2023/11/17 12:29:00;;;;;;;8.43;4.88;;;9.70;99.90;;;;;;5050545;28;20234;-44
2023/11/17 12:31:29;;;;;;;8.13;5.55;;;9.80;99.90;;;;;;5049807;28;20271;-49
2023/11/17 12:33:55;;;;;;;7.07;4.88;;;9.80;99.90;;;;;;5047366;28;20183;-45
2023/11/17 12:36:23;;;;;;;7.03;4.45;;;9.80;99.90;;;;;;5048971;28;20198;-44
2023/11/17 12:38:55;;;;;;;7.07;4.90;;;9.80;99.90;;;;;;5051918;28;20195;-47
2023/11/17 12:41:23;;;;;;;8.00;4.40;;;9.80;99.90;;;;;;5060295;28;20198;-44
2023/11/17 12:43:50;;;;;;;10.18;5.13;;;9.80;99.90;;;;;;5051843;28;20236;-42
2023/11/17 12:46:17;;;;;;;7.75;4.45;;;9.80;99.90;;;;;;5051106;28;20266;-43
2023/11/17 12:48:44;;;;;;;6.45;4.80;;;9.90;99.90;;;;;;5049846;28;20222;-46
2023/11/17 12:51:11;;;;;;;6.30;4.65;;;9.80;99.90;;;;;;5048200;28;20290;-48